Time;durP1;ratioP1;P1;durP2;ratioP2;P2;SDS_P1;SDS_P2;PMS_P1;PMS_P2;Temp;Humidity;BMP_temperature;BMP_pressure;BME280_temperature;BME280_humidity;BME280_pressure;Samples;Min_cycle;Max_cycle;Signal;HPM_P1;HPM_P2
2023/05/27 00:01:39;;;;;;;25.95;24.05;;;17.30;99.90;;;;;;5291271;28;20027;-69
2023/05/27 00:04:10;;;;;;;24.80;22.90;;;17.30;99.90;;;;;;5290319;28;20040;-70
2023/05/27 00:06:41;;;;;;;24.90;23.13;;;17.20;99.90;;;;;;5290909;28;20347;-70
2023/05/27 00:09:12;;;;;;;24.08;22.35;;;17.30;99.90;;;;;;5290757;28;20020;-70
2023/05/27 00:11:43;;;;;;;25.35;23.38;;;17.30;99.90;;;;;;5290527;28;20031;-70
2023/05/27 00:14:13;;;;;;;25.67;23.67;;;17.40;99.90;;;;;;5290563;28;20083;-70
2023/05/27 00:16:44;;;;;;;27.10;25.10;;;17.40;99.90;;;;;;5290741;28;20425;-69
2023/05/27 00:19:17;;;;;;;25.60;23.60;;;17.40;99.90;;;;;;5290440;28;20038;-69
2023/05/27 00:21:47;;;;;;;26.83;24.45;;;17.40;99.90;;;;;;5293634;27;20088;-69
2023/05/27 00:24:20;;;;;;;26.08;24.13;;;17.30;99.90;;;;;;5299999;27;20039;-69
2023/05/27 00:26:51;;;;;;;26.63;24.60;;;17.30;99.90;;;;;;5296419;27;20106;-70
2023/05/27 00:29:24;;;;;;;24.25;22.63;;;17.40;99.90;;;;;;5290351;28;20111;-70
2023/05/27 00:31:55;;;;;;;24.00;22.20;;;17.40;99.90;;;;;;5290030;28;20024;-70
2023/05/27 00:34:26;;;;;;;24.02;22.35;;;17.40;99.90;;;;;;5291765;27;20566;-68
2023/05/27 00:36:57;;;;;;;24.23;22.48;;;17.40;99.90;;;;;;5301201;27;20030;-69
2023/05/27 00:39:28;;;;;;;25.40;23.60;;;17.30;99.90;;;;;;5295806;27;20024;-70
2023/05/27 00:41:59;;;;;;;27.05;25.02;;;17.30;99.90;;;;;;5290139;28;20024;-70
2023/05/27 00:44:30;;;;;;;28.13;25.92;;;17.20;99.90;;;;;;5298876;27;20067;-69
2023/05/27 00:47:01;;;;;;;28.17;25.98;;;17.40;99.90;;;;;;5294397;27;20434;-70
2023/05/27 00:49:32;;;;;;;26.27;24.35;;;17.30;99.90;;;;;;5283541;28;20090;-69
2023/05/27 00:52:03;;;;;;;24.73;22.92;;;17.40;99.90;;;;;;5289805;28;20140;-70
2023/05/27 00:54:34;;;;;;;23.48;21.77;;;17.40;99.90;;;;;;5289481;28;20069;-69
2023/05/27 00:57:05;;;;;;;25.52;23.73;;;17.30;99.90;;;;;;5290266;28;20463;-69
2023/05/27 00:59:36;;;;;;;28.17;26.02;;;17.20;99.90;;;;;;5305258;27;20416;-70
2023/05/27 01:02:07;;;;;;;26.48;24.48;;;17.30;99.90;;;;;;5289458;28;20505;-69
2023/05/27 01:04:38;;;;;;;26.95;24.85;;;17.20;99.90;;;;;;5289583;28;20035;-70
2023/05/27 01:07:20;;;;;;;28.23;26.23;;;17.30;99.90;;;;;;5298123;27;20015;-66
2023/05/27 01:09:56;;;;;;;27.33;25.33;;;17.30;99.90;;;;;;5296136;27;20039;-69
2023/05/27 01:12:54;;;;;;;26.85;24.42;;;17.40;99.90;;;;;;5301242;27;20047;-69
2023/05/27 01:15:25;;;;;;;26.23;24.23;;;17.30;99.90;;;;;;5290324;27;20023;-69
2023/05/27 01:18:01;;;;;;;26.38;24.45;;;17.30;99.90;;;;;;5289537;28;20016;-69
2023/05/27 01:20:33;;;;;;;24.63;22.90;;;17.40;99.90;;;;;;5294126;27;20043;-70
2023/05/27 01:23:04;;;;;;;26.10;24.20;;;17.40;99.90;;;;;;5289349;27;20118;-70
2023/05/27 01:25:35;;;;;;;24.83;23.13;;;17.30;99.90;;;;;;5297464;27;20041;-70
2023/05/27 01:30:46;;;;;;;25.42;23.55;;;17.20;99.90;;;;;;5450255;22;20053;-69
2023/05/27 01:33:22;;;;;;;24.15;22.42;;;17.30;99.90;;;;;;5198851;28;20021;-69
2023/05/27 01:36:01;;;;;;;25.02;23.15;;;17.30;99.90;;;;;;5205105;28;20433;-69
2023/05/27 01:38:33;;;;;;;26.27;24.35;;;17.30;99.90;;;;;;5188596;28;20044;-69
2023/05/27 01:41:04;;;;;;;23.33;21.60;;;17.30;99.90;;;;;;5205699;28;20047;-69
2023/05/27 01:43:37;;;;;;;25.08;23.25;;;17.30;99.90;;;;;;5205435;28;20033;-69
2023/05/27 01:46:08;;;;;;;24.25;22.48;;;17.30;99.90;;;;;;5205579;28;20021;-69
2023/05/27 01:48:39;;;;;;;26.08;24.20;;;17.30;99.90;;;;;;5187453;28;20171;-69
2023/05/27 01:51:10;;;;;;;24.55;22.88;;;17.30;99.90;;;;;;5205062;28;20108;-69
2023/05/27 01:53:41;;;;;;;24.30;22.42;;;17.20;99.90;;;;;;5205175;28;20029;-69
2023/05/27 01:56:12;;;;;;;24.95;23.05;;;17.20;99.90;;;;;;5205468;28;20129;-69
2023/05/27 01:58:43;;;;;;;25.05;23.33;;;17.20;99.90;;;;;;5206415;28;20037;-69
2023/05/27 02:01:14;;;;;;;23.60;21.80;;;17.20;99.90;;;;;;5224085;28;20063;-66
2023/05/27 02:03:45;;;;;;;24.85;23.15;;;17.20;99.90;;;;;;5225860;28;20025;-69
2023/05/27 02:06:16;;;;;;;26.25;24.35;;;17.10;99.90;;;;;;5226056;28;20495;-69
2023/05/27 02:08:47;;;;;;;28.30;26.30;;;17.10;99.90;;;;;;5225679;28;20044;-69
2023/05/27 02:11:17;;;;;;;24.90;23.20;;;17.20;99.90;;;;;;5225892;28;20047;-69
2023/05/27 02:13:49;;;;;;;22.75;21.05;;;17.30;99.90;;;;;;5225547;28;20024;-69
2023/05/27 02:16:23;;;;;;;25.17;23.33;;;17.30;99.90;;;;;;5225705;28;20044;-69
2023/05/27 02:18:54;;;;;;;25.38;23.65;;;17.20;99.90;;;;;;5209489;28;20027;-70
2023/05/27 02:21:26;;;;;;;25.88;24.17;;;17.20;99.90;;;;;;5199478;28;20071;-70
2023/05/27 02:24:12;;;;;;;25.30;23.40;;;17.20;99.90;;;;;;5219820;28;20115;-67
2023/05/27 02:26:43;;;;;;;25.88;24.02;;;17.20;99.90;;;;;;5225784;28;20041;-68
2023/05/27 02:29:14;;;;;;;28.98;26.75;;;17.10;99.90;;;;;;5225365;28;20041;-68
2023/05/27 02:31:45;;;;;;;25.13;23.33;;;17.10;99.90;;;;;;5223998;28;20449;-67
2023/05/27 02:34:16;;;;;;;24.65;22.85;;;17.20;99.90;;;;;;5220595;28;20101;-68
2023/05/27 02:36:46;;;;;;;27.48;25.35;;;17.30;99.90;;;;;;5225682;28;20443;-69
2023/05/27 02:39:17;;;;;;;26.63;24.60;;;17.20;99.90;;;;;;5225385;28;20392;-69
2023/05/27 02:41:48;;;;;;;26.33;24.23;;;17.30;99.90;;;;;;5225269;28;20033;-70
2023/05/27 02:44:19;;;;;;;24.63;22.55;;;17.30;99.90;;;;;;5225582;28;20029;-69
2023/05/27 02:46:50;;;;;;;24.40;22.60;;;17.20;99.90;;;;;;5204556;28;20110;-69
2023/05/27 02:49:21;;;;;;;25.25;23.20;;;17.20;99.90;;;;;;5225634;28;20009;-69
2023/05/27 02:51:51;;;;;;;26.15;24.00;;;17.20;99.90;;;;;;5225242;28;20033;-68
2023/05/27 02:54:22;;;;;;;24.85;22.88;;;17.30;99.90;;;;;;5225168;28;20082;-69
2023/05/27 02:56:53;;;;;;;22.67;20.90;;;17.30;99.90;;;;;;5225199;28;20530;-70
2023/05/27 02:59:24;;;;;;;22.15;20.58;;;17.30;99.90;;;;;;5225144;28;20025;-69
2023/05/27 03:01:55;;;;;;;25.98;23.98;;;17.30;99.90;;;;;;5223495;28;20029;-69
2023/05/27 03:04:26;;;;;;;24.75;22.73;;;17.30;99.90;;;;;;5228679;28;20361;-69
2023/05/27 03:06:57;;;;;;;26.77;24.77;;;17.20;99.90;;;;;;5229288;28;20389;-69
2023/05/27 03:09:28;;;;;;;25.17;23.52;;;17.10;99.90;;;;;;5228999;28;20037;-69
2023/05/27 03:11:58;;;;;;;25.80;24.02;;;17.20;99.90;;;;;;5228938;28;20025;-69
2023/05/27 03:14:29;;;;;;;24.42;22.73;;;17.10;99.90;;;;;;5228787;28;20115;-68
2023/05/27 03:17:00;;;;;;;24.38;22.48;;;17.10;99.90;;;;;;5229285;28;20101;-69
2023/05/27 03:19:31;;;;;;;23.92;22.13;;;17.30;99.90;;;;;;5211077;28;20485;-70
2023/05/27 03:22:02;;;;;;;25.15;23.42;;;17.30;99.90;;;;;;5210851;28;20120;-68
2023/05/27 03:24:33;;;;;;;24.60;22.90;;;17.20;99.90;;;;;;5228655;28;20041;-69
2023/05/27 03:27:05;;;;;;;23.52;21.77;;;17.40;99.90;;;;;;5228787;28;20498;-69
2023/05/27 03:29:36;;;;;;;25.27;23.42;;;17.30;99.90;;;;;;5228077;28;20077;-69
2023/05/27 03:32:07;;;;;;;25.65;23.85;;;17.30;99.90;;;;;;5229135;28;20187;-69
2023/05/27 03:34:38;;;;;;;25.42;23.63;;;17.40;99.90;;;;;;5228737;28;20495;-69
2023/05/27 03:37:09;;;;;;;25.42;23.65;;;17.40;99.90;;;;;;5228808;28;20028;-69
2023/05/27 03:39:40;;;;;;;25.92;24.00;;;17.40;99.90;;;;;;5200210;28;20030;-69
2023/05/27 03:42:11;;;;;;;27.45;25.25;;;17.40;99.90;;;;;;5223151;28;20024;-69
2023/05/27 03:44:42;;;;;;;26.67;24.35;;;17.50;99.90;;;;;;5228541;28;20052;-69
2023/05/27 03:47:13;;;;;;;27.35;25.15;;;17.50;99.90;;;;;;5228607;28;20461;-69
2023/05/27 03:49:44;;;;;;;26.85;24.85;;;17.60;99.90;;;;;;5228432;28;20439;-69
2023/05/27 03:52:15;;;;;;;25.92;24.10;;;17.60;99.90;;;;;;5228554;28;20048;-69
2023/05/27 03:54:46;;;;;;;25.38;23.38;;;17.70;99.90;;;;;;5228235;28;20461;-70
2023/05/27 03:57:17;;;;;;;25.73;23.83;;;17.70;99.90;;;;;;5228427;28;20028;-70
2023/05/27 03:59:48;;;;;;;28.00;25.73;;;17.80;99.90;;;;;;5227723;28;20064;-69
2023/05/27 04:02:19;;;;;;;27.73;25.42;;;17.70;99.90;;;;;;5227511;28;20099;-69
2023/05/27 04:04:50;;;;;;;28.50;26.13;;;17.80;99.90;;;;;;5228155;28;20040;-69
2023/05/27 04:07:26;;;;;;;28.55;26.17;;;17.80;99.90;;;;;;5227995;28;20018;-68
2023/05/27 04:09:57;;;;;;;31.17;28.63;;;17.80;99.90;;;;;;5227915;28;20132;-69
2023/05/27 04:12:28;;;;;;;29.02;26.80;;;17.80;99.90;;;;;;5227553;28;20115;-70
2023/05/27 04:14:59;;;;;;;30.45;28.00;;;17.80;99.90;;;;;;5228217;28;20080;-69
2023/05/27 04:17:30;;;;;;;30.92;28.40;;;17.80;99.90;;;;;;5227925;28;20482;-69
2023/05/27 04:20:00;;;;;;;29.10;26.77;;;17.80;99.90;;;;;;5209680;28;20056;-69
2023/05/27 04:22:31;;;;;;;28.63;26.33;;;17.80;99.90;;;;;;5227585;28;20036;-67
2023/05/27 04:25:02;;;;;;;30.27;27.90;;;17.90;99.90;;;;;;5227637;28;20037;-69
2023/05/27 04:27:33;;;;;;;28.83;26.27;;;17.90;99.90;;;;;;5227577;28;20377;-70
2023/05/27 04:30:06;;;;;;;28.30;26.30;;;17.90;99.90;;;;;;5223607;28;20053;-69
2023/05/27 04:32:37;;;;;;;27.55;25.33;;;17.90;99.90;;;;;;5227640;28;20082;-69
2023/05/27 04:35:09;;;;;;;29.48;27.08;;;18.00;99.90;;;;;;5227382;28;20028;-69
2023/05/27 04:37:40;;;;;;;27.80;25.60;;;18.00;99.90;;;;;;5227280;28;20055;-68
2023/05/27 04:40:12;;;;;;;29.02;26.90;;;18.10;99.90;;;;;;5227489;28;20025;-69
2023/05/27 04:42:43;;;;;;;28.75;26.52;;;18.10;99.90;;;;;;5227252;28;20035;-69
2023/05/27 04:45:14;;;;;;;25.95;24.13;;;18.20;99.90;;;;;;5227236;28;20032;-69
2023/05/27 04:47:45;;;;;;;28.95;26.63;;;18.20;99.90;;;;;;5227338;28;20021;-66
2023/05/27 04:50:16;;;;;;;26.08;24.08;;;18.30;99.90;;;;;;5227232;28;20025;-68
2023/05/27 04:52:47;;;;;;;26.20;24.00;;;18.30;99.90;;;;;;5227091;28;20029;-69
2023/05/27 04:55:18;;;;;;;27.02;24.83;;;18.40;99.90;;;;;;5227233;28;20043;-71
2023/05/27 04:57:49;;;;;;;25.90;23.98;;;18.30;99.90;;;;;;5226960;28;20029;-71
2023/05/27 05:00:34;;;;;;;25.48;23.58;;;18.30;99.90;;;;;;5226488;28;20017;-70
2023/05/27 05:03:07;;;;;;;25.95;24.13;;;18.30;99.90;;;;;;5220167;28;20031;-71
2023/05/27 05:05:37;;;;;;;25.27;23.40;;;18.40;99.90;;;;;;5226673;28;20361;-71
2023/05/27 05:08:08;;;;;;;27.27;25.40;;;18.50;99.90;;;;;;5226724;28;20021;-70
2023/05/27 05:10:39;;;;;;;28.98;26.67;;;18.40;99.90;;;;;;5226655;28;20081;-71
2023/05/27 05:13:10;;;;;;;29.48;27.15;;;18.50;99.90;;;;;;5226786;28;20388;-71
2023/05/27 05:15:43;;;;;;;31.50;29.13;;;18.70;99.90;;;;;;5226630;28;20464;-71
2023/05/27 05:18:14;;;;;;;30.10;28.10;;;18.70;99.90;;;;;;5226986;28;20480;-71
2023/05/27 05:20:45;;;;;;;27.83;26.02;;;18.70;99.90;;;;;;5226452;28;20021;-71
2023/05/27 05:23:16;;;;;;;27.95;25.95;;;18.70;99.90;;;;;;5207836;28;20086;-67
2023/05/27 05:25:54;;;;;;;26.88;24.98;;;18.70;99.90;;;;;;5226338;28;20055;-71
2023/05/27 05:28:25;;;;;;;27.02;25.02;;;18.80;99.90;;;;;;5225391;28;20091;-67
2023/05/27 05:30:55;;;;;;;26.27;24.40;;;18.80;99.90;;;;;;5225639;28;20044;-71
2023/05/27 05:33:26;;;;;;;26.77;24.98;;;18.90;99.90;;;;;;5226569;28;20061;-71
2023/05/27 05:35:57;;;;;;;23.90;21.77;;;18.90;99.90;;;;;;5225725;28;20021;-70
2023/05/27 05:38:29;;;;;;;24.10;22.40;;;18.90;99.90;;;;;;5226034;28;20029;-71
2023/05/27 05:41:00;;;;;;;24.40;22.55;;;18.90;99.90;;;;;;5226087;28;20013;-70
2023/05/27 05:43:31;;;;;;;25.15;23.25;;;18.90;99.90;;;;;;5226230;28;20087;-71
2023/05/27 05:46:02;;;;;;;24.98;23.02;;;19.10;99.90;;;;;;5226341;28;20092;-71
2023/05/27 05:48:33;;;;;;;24.88;22.95;;;19.30;99.90;;;;;;5226126;28;20111;-71
2023/05/27 05:51:04;;;;;;;25.77;23.98;;;19.40;99.90;;;;;;5226121;28;20021;-70
2023/05/27 05:53:35;;;;;;;23.75;22.13;;;19.40;99.90;;;;;;5225901;28;20017;-71
2023/05/27 05:56:06;;;;;;;23.90;22.20;;;19.50;99.90;;;;;;5225354;28;20025;-71
2023/05/27 05:58:37;;;;;;;24.77;22.90;;;19.60;99.90;;;;;;5225846;28;20048;-71
2023/05/27 06:01:08;;;;;;;22.90;21.48;;;19.70;99.90;;;;;;5226395;28;20090;-70
2023/05/27 06:03:39;;;;;;;24.48;22.52;;;19.90;99.90;;;;;;5225885;28;20416;-70
2023/05/27 06:06:10;;;;;;;24.52;22.83;;;20.00;99.90;;;;;;5226130;28;20453;-71
2023/05/27 06:08:41;;;;;;;24.13;22.33;;;20.00;99.90;;;;;;5225949;28;20473;-71
2023/05/27 06:11:12;;;;;;;25.95;24.15;;;20.20;99.90;;;;;;5226059;28;20071;-71
2023/05/27 06:13:43;;;;;;;25.13;23.52;;;20.30;99.90;;;;;;5225803;28;20032;-70
2023/05/27 06:16:14;;;;;;;24.27;22.48;;;20.10;99.90;;;;;;5193059;28;20053;-71
2023/05/27 06:18:45;;;;;;;22.80;21.20;;;20.40;99.90;;;;;;5224455;28;20025;-71
2023/05/27 06:21:16;;;;;;;23.52;22.00;;;20.60;99.90;;;;;;5225735;28;20028;-71
2023/05/27 06:23:47;;;;;;;25.00;23.30;;;20.50;99.90;;;;;;5225384;28;20041;-71
2023/05/27 06:26:18;;;;;;;22.88;21.27;;;20.50;99.90;;;;;;5225644;28;20378;-71
2023/05/27 06:28:49;;;;;;;23.50;21.90;;;20.50;99.90;;;;;;5223695;28;20040;-71
2023/05/27 06:31:20;;;;;;;27.45;25.55;;;20.60;99.90;;;;;;5218062;28;20037;-71
2023/05/27 06:33:50;;;;;;;28.30;26.50;;;20.70;99.90;;;;;;5225361;28;20048;-71
2023/05/27 06:36:21;;;;;;;27.20;25.40;;;20.40;99.90;;;;;;5229067;28;20369;-71
2023/05/27 06:38:53;;;;;;;26.00;24.30;;;20.50;99.90;;;;;;5199561;28;20099;-71
2023/05/27 06:41:24;;;;;;;28.55;26.77;;;20.30;99.90;;;;;;5229871;28;20021;-68
2023/05/27 06:43:55;;;;;;;24.42;22.83;;;20.30;99.90;;;;;;5229539;28;20780;-72
2023/05/27 06:46:26;;;;;;;25.42;23.52;;;20.20;99.90;;;;;;5229569;28;20068;-70
2023/05/27 06:48:57;;;;;;;27.20;25.40;;;20.40;99.90;;;;;;5229036;28;20036;-69
2023/05/27 06:51:28;;;;;;;27.52;25.63;;;20.30;99.90;;;;;;5202179;28;20112;-70
2023/05/27 06:53:59;;;;;;;26.80;25.13;;;20.60;99.90;;;;;;5220168;28;20108;-68
2023/05/27 06:56:30;;;;;;;24.73;23.15;;;20.50;99.90;;;;;;5229278;28;20480;-72
2023/05/27 06:59:01;;;;;;;25.65;23.75;;;20.30;99.90;;;;;;5216086;28;20744;-72
2023/05/27 07:01:32;;;;;;;28.27;26.40;;;20.40;99.90;;;;;;5228278;28;20025;-72
2023/05/27 07:04:03;;;;;;;25.70;24.00;;;20.30;99.90;;;;;;5228288;28;20037;-72
2023/05/27 07:06:35;;;;;;;26.92;25.25;;;20.30;99.90;;;;;;5229146;28;20032;-72
2023/05/27 07:09:06;;;;;;;27.88;25.77;;;20.40;99.90;;;;;;5226589;28;20384;-72
2023/05/27 07:11:38;;;;;;;26.77;24.88;;;20.50;99.90;;;;;;5226916;28;20027;-72
2023/05/27 07:14:10;;;;;;;29.25;27.10;;;20.60;99.90;;;;;;5196774;28;20053;-72
2023/05/27 07:16:41;;;;;;;31.20;28.80;;;20.50;99.90;;;;;;5229036;28;20326;-67
2023/05/27 07:19:12;;;;;;;27.35;25.25;;;20.20;99.90;;;;;;5229284;28;20075;-72
2023/05/27 07:21:43;;;;;;;26.83;25.02;;;20.20;99.90;;;;;;5223328;28;20040;-72
2023/05/27 07:24:14;;;;;;;31.50;29.15;;;20.00;99.90;;;;;;5226810;28;20090;-72
2023/05/27 07:26:45;;;;;;;30.65;28.45;;;20.00;99.90;;;;;;5227708;28;20083;-68
2023/05/27 07:29:16;;;;;;;32.80;30.30;;;20.00;99.90;;;;;;5215244;28;20041;-72
2023/05/27 07:31:47;;;;;;;29.38;27.20;;;20.10;99.90;;;;;;5228137;28;20033;-72
2023/05/27 07:34:18;;;;;;;29.50;27.52;;;20.10;99.90;;;;;;5228907;28;20029;-72
2023/05/27 07:36:50;;;;;;;31.15;28.95;;;20.00;99.90;;;;;;5210077;28;20027;-72
2023/05/27 07:39:23;;;;;;;30.35;27.90;;;19.90;99.90;;;;;;5228738;28;20021;-72
2023/05/27 07:41:54;;;;;;;28.70;26.15;;;19.80;99.90;;;;;;5228600;28;20029;-71
2023/05/27 07:44:27;;;;;;;28.20;26.10;;;19.80;99.90;;;;;;5194516;28;20049;-72
2023/05/27 07:47:00;;;;;;;30.63;28.33;;;19.80;99.90;;;;;;5227677;28;20314;-72
2023/05/27 07:49:31;;;;;;;27.52;25.42;;;19.80;99.90;;;;;;5210581;28;20049;-70
2023/05/27 07:52:02;;;;;;;25.08;23.10;;;19.80;99.90;;;;;;5228183;28;20492;-70
2023/05/27 07:54:33;;;;;;;26.58;24.63;;;20.00;99.90;;;;;;5227748;28;20083;-72
2023/05/27 07:57:06;;;;;;;25.35;23.45;;;20.00;99.90;;;;;;5227506;28;20013;-71
2023/05/27 07:59:39;;;;;;;29.27;26.85;;;20.20;99.90;;;;;;5222070;28;20029;-70
2023/05/27 08:02:14;;;;;;;25.70;23.80;;;20.50;99.90;;;;;;5220871;28;20014;-68
2023/05/27 08:04:48;;;;;;;25.92;24.20;;;20.50;99.90;;;;;;5223560;28;20025;-68
2023/05/27 08:07:25;;;;;;;26.42;24.63;;;20.50;99.90;;;;;;5199397;28;20417;-69
2023/05/27 08:09:58;;;;;;;28.00;26.15;;;20.40;99.90;;;;;;5220365;28;20033;-71
2023/05/27 08:12:31;;;;;;;31.80;29.60;;;20.40;99.90;;;;;;5219415;28;20056;-70
2023/05/27 08:15:07;;;;;;;31.13;28.73;;;20.60;99.90;;;;;;5220685;28;20094;-68
2023/05/27 08:17:44;;;;;;;28.48;26.55;;;20.60;99.90;;;;;;5218826;28;20033;-70
2023/05/27 08:20:17;;;;;;;32.10;29.90;;;20.40;99.90;;;;;;5219693;28;20013;-67
2023/05/27 08:22:48;;;;;;;30.05;27.90;;;20.40;99.90;;;;;;5217158;28;20028;-68
2023/05/27 08:25:19;;;;;;;33.17;31.10;;;20.60;99.90;;;;;;5217909;28;20044;-68
2023/05/27 08:27:53;;;;;;;33.78;31.52;;;20.80;99.90;;;;;;5217653;28;20028;-70
2023/05/27 08:30:26;;;;;;;33.28;30.95;;;20.80;99.90;;;;;;5219625;28;20041;-70
2023/05/27 08:32:57;;;;;;;29.42;27.40;;;20.70;99.90;;;;;;5217877;28;20033;-69
2023/05/27 08:35:29;;;;;;;31.88;29.55;;;20.70;99.90;;;;;;5220432;28;20021;-70
2023/05/27 08:38:00;;;;;;;31.50;29.33;;;20.70;99.90;;;;;;5218983;28;20020;-69
2023/05/27 08:40:31;;;;;;;33.38;30.90;;;20.60;99.90;;;;;;5221389;28;20369;-72
2023/05/27 08:43:02;;;;;;;31.27;29.17;;;20.50;99.90;;;;;;5198532;28;20049;-68
2023/05/27 08:45:34;;;;;;;30.45;28.35;;;20.60;99.90;;;;;;5204168;28;20523;-70
2023/05/27 08:48:08;;;;;;;33.08;30.52;;;20.70;99.90;;;;;;5217242;28;20462;-68
2023/05/27 08:50:39;;;;;;;30.80;28.27;;;20.60;99.90;;;;;;5224289;28;20109;-70
2023/05/27 08:53:11;;;;;;;32.05;30.05;;;20.70;99.90;;;;;;5216476;28;20022;-69
2023/05/27 08:55:43;;;;;;;29.38;27.38;;;20.70;99.90;;;;;;5221274;28;20031;-67
2023/05/27 08:58:15;;;;;;;30.10;28.23;;;20.80;99.90;;;;;;5224535;28;20032;-70
2023/05/27 09:00:46;;;;;;;32.80;30.45;;;20.80;99.90;;;;;;5226039;28;20044;-71
2023/05/27 09:03:17;;;;;;;33.55;30.88;;;21.00;99.90;;;;;;5227044;28;20064;-68
2023/05/27 09:05:48;;;;;;;34.55;31.60;;;21.40;99.90;;;;;;5226689;28;20534;-70
2023/05/27 09:08:19;;;;;;;46.90;41.95;;;21.30;99.90;;;;;;5225686;28;20380;-70
2023/05/27 09:10:50;;;;;;;40.10;36.13;;;21.00;99.90;;;;;;5226890;28;20059;-70
2023/05/27 09:13:31;;;;;;;35.05;32.00;;;21.20;99.90;;;;;;5226768;28;20045;-71
2023/05/27 09:16:04;;;;;;;31.80;28.42;;;21.40;99.90;;;;;;5208858;28;20066;-71
2023/05/27 09:18:37;;;;;;;33.78;30.17;;;21.50;99.90;;;;;;5226590;28;20028;-71
2023/05/27 09:21:07;;;;;;;26.38;24.17;;;21.60;99.90;;;;;;5220169;28;20060;-71
2023/05/27 09:23:39;;;;;;;26.13;23.88;;;21.40;99.90;;;;;;5226222;28;20469;-71
2023/05/27 09:26:12;;;;;;;25.17;23.27;;;21.20;99.90;;;;;;5226498;28;20021;-70
2023/05/27 09:28:43;;;;;;;25.35;23.67;;;20.80;99.90;;;;;;5226437;28;20354;-70
2023/05/27 09:31:14;;;;;;;28.67;26.73;;;20.80;99.90;;;;;;5226060;28;20102;-71
2023/05/27 09:33:45;;;;;;;32.08;29.58;;;20.90;99.90;;;;;;5226095;28;20075;-70
2023/05/27 09:36:24;;;;;;;28.95;26.88;;;21.00;99.90;;;;;;5225625;28;20032;-71
2023/05/27 09:38:59;;;;;;;30.13;27.67;;;20.90;99.90;;;;;;5211950;28;20473;-70
2023/05/27 09:41:30;;;;;;;28.65;26.75;;;20.90;99.90;;;;;;5226220;28;20021;-71
2023/05/27 09:44:05;;;;;;;31.23;29.13;;;20.70;99.90;;;;;;5226399;28;20039;-70
2023/05/27 09:46:36;;;;;;;28.92;27.13;;;21.20;99.90;;;;;;5224316;28;20079;-70
2023/05/27 09:49:08;;;;;;;31.55;29.35;;;20.90;99.90;;;;;;5226404;28;20032;-70
2023/05/27 09:51:41;;;;;;;31.15;28.73;;;20.90;99.90;;;;;;5225485;28;20107;-70
2023/05/27 09:54:18;;;;;;;33.47;30.98;;;20.90;99.90;;;;;;5226287;28;20017;-69
2023/05/27 09:56:51;;;;;;;31.67;29.38;;;20.70;99.90;;;;;;5226166;28;20040;-70
2023/05/27 09:59:22;;;;;;;30.90;28.60;;;21.00;99.90;;;;;;5225910;28;20027;-70
2023/05/27 10:01:54;;;;;;;35.55;32.75;;;21.00;99.90;;;;;;5225953;28;20043;-71
2023/05/27 10:04:25;;;;;;;32.20;29.52;;;21.70;99.90;;;;;;5225850;28;20045;-70
2023/05/27 10:06:58;;;;;;;27.30;24.92;;;22.00;99.90;;;;;;5225779;28;20021;-70
2023/05/27 10:09:29;;;;;;;24.85;22.45;;;21.70;99.90;;;;;;5225554;28;20021;-70
2023/05/27 10:12:01;;;;;;;21.70;20.20;;;21.80;99.90;;;;;;5225813;28;20499;-70
2023/05/27 10:14:32;;;;;;;22.25;20.63;;;21.90;99.90;;;;;;5225597;28;20420;-71
2023/05/27 10:17:03;;;;;;;21.25;19.42;;;21.80;99.90;;;;;;5225983;28;20055;-71
2023/05/27 10:19:34;;;;;;;22.00;20.50;;;21.60;99.90;;;;;;5225726;28;20036;-70
2023/05/27 10:22:15;;;;;;;25.10;23.23;;;21.20;99.90;;;;;;5225846;28;20055;-71
2023/05/27 10:24:48;;;;;;;25.80;24.02;;;21.00;99.90;;;;;;5185071;28;20432;-70
2023/05/27 10:27:21;;;;;;;27.25;25.40;;;21.00;99.90;;;;;;5214882;28;20021;-71
2023/05/27 10:29:58;;;;;;;28.50;26.70;;;21.30;99.90;;;;;;5218628;28;20191;-71
2023/05/27 10:32:29;;;;;;;28.27;26.38;;;21.10;99.90;;;;;;5216800;28;20025;-70
2023/05/27 10:35:00;;;;;;;25.52;23.92;;;21.10;99.90;;;;;;5212099;28;20237;-70
2023/05/27 10:37:34;;;;;;;27.67;25.77;;;21.20;99.90;;;;;;5220322;28;20025;-71
2023/05/27 10:40:07;;;;;;;26.40;24.50;;;21.50;99.90;;;;;;5221597;28;20025;-72
2023/05/27 10:42:40;;;;;;;25.83;24.10;;;21.70;99.90;;;;;;5214935;28;20017;-70
2023/05/27 10:45:13;;;;;;;25.73;24.00;;;21.40;99.90;;;;;;5225413;28;20037;-71
2023/05/27 10:47:46;;;;;;;28.02;26.17;;;21.30;99.90;;;;;;5224356;28;20032;-71
2023/05/27 10:50:17;;;;;;;28.73;26.73;;;21.50;99.90;;;;;;5225640;28;20036;-70
2023/05/27 10:52:52;;;;;;;26.17;24.40;;;21.40;99.90;;;;;;5225680;28;20040;-71
2023/05/27 10:55:23;;;;;;;26.30;24.38;;;21.80;99.90;;;;;;5224678;28;20044;-71
2023/05/27 10:57:55;;;;;;;32.45;29.55;;;21.40;99.90;;;;;;5225155;28;20111;-70
2023/05/27 11:00:27;;;;;;;29.23;26.67;;;21.40;99.90;;;;;;5223099;28;20033;-70
2023/05/27 11:02:59;;;;;;;24.92;23.23;;;21.50;99.90;;;;;;5201623;28;20025;-71
2023/05/27 11:05:32;;;;;;;26.60;24.70;;;21.30;99.90;;;;;;5218284;28;20115;-71
2023/05/27 11:08:08;;;;;;;28.05;25.85;;;21.60;99.90;;;;;;5220207;28;20025;-70
2023/05/27 11:10:43;;;;;;;25.98;23.98;;;21.90;99.90;;;;;;5221068;28;20098;-70
2023/05/27 11:13:14;;;;;;;24.73;22.83;;;21.50;99.90;;;;;;5220485;28;20365;-70
2023/05/27 11:15:46;;;;;;;23.45;21.73;;;21.70;99.90;;;;;;5220284;28;20021;-70
2023/05/27 11:18:17;;;;;;;23.65;21.75;;;21.70;99.90;;;;;;5216700;28;20129;-71
2023/05/27 11:20:48;;;;;;;23.27;21.45;;;21.70;99.90;;;;;;5219847;28;20021;-71
2023/05/27 11:23:18;;;;;;;20.80;19.35;;;22.00;99.90;;;;;;5223902;28;20554;-70
2023/05/27 11:25:49;;;;;;;20.33;18.83;;;21.80;99.90;;;;;;5222672;28;20467;-70
2023/05/27 11:31:04;;;;;;;20.98;19.30;;;21.50;99.90;;;;;;5328251;23;20053;-67
2023/05/27 11:33:35;;;;;;;20.48;18.80;;;21.90;99.90;;;;;;5249729;28;20016;-70
2023/05/27 11:36:07;;;;;;;22.63;20.92;;;21.80;99.90;;;;;;5234379;28;20075;-67
2023/05/27 11:38:55;;;;;;;22.00;20.55;;;21.60;99.90;;;;;;5239597;28;20107;-71
2023/05/27 11:41:28;;;;;;;21.25;19.75;;;21.20;99.90;;;;;;5243589;28;20488;-69
2023/05/27 11:44:08;;;;;;;24.17;22.42;;;21.20;99.90;;;;;;5251904;28;20416;-70
2023/05/27 11:46:44;;;;;;;23.58;21.98;;;21.70;99.90;;;;;;5249960;28;20016;-69
2023/05/27 11:49:18;;;;;;;24.92;22.95;;;22.00;99.90;;;;;;5249199;28;20582;-67
2023/05/27 11:51:50;;;;;;;22.73;21.13;;;22.40;99.90;;;;;;5247979;28;20150;-68
2023/05/27 11:54:26;;;;;;;21.95;20.48;;;22.30;99.90;;;;;;5248514;28;20043;-70
2023/05/27 11:57:00;;;;;;;22.92;20.92;;;22.00;99.90;;;;;;5245196;28;20357;-70
2023/05/27 11:59:31;;;;;;;21.83;19.85;;;22.40;99.90;;;;;;5230950;28;20037;-70
2023/05/27 12:02:06;;;;;;;21.13;19.73;;;22.80;99.90;;;;;;5242094;28;20028;-69
2023/05/27 12:04:36;;;;;;;19.67;18.27;;;23.00;99.90;;;;;;5239618;28;20044;-68
2023/05/27 12:07:07;;;;;;;19.15;17.90;;;22.30;99.90;;;;;;5239754;28;20697;-69
2023/05/27 12:09:38;;;;;;;19.42;18.13;;;22.00;99.90;;;;;;5240118;28;20526;-70
2023/05/27 12:12:09;;;;;;;18.45;17.13;;;22.30;99.90;;;;;;5244592;28;20024;-68
2023/05/27 12:14:40;;;;;;;18.25;16.85;;;22.50;99.90;;;;;;5240804;28;20036;-69
2023/05/27 12:17:11;;;;;;;18.60;17.30;;;22.50;99.90;;;;;;5244467;28;20468;-69
2023/05/27 12:19:42;;;;;;;18.70;17.33;;;22.80;99.90;;;;;;5243640;28;20675;-68
2023/05/27 12:22:13;;;;;;;18.38;17.00;;;22.50;99.90;;;;;;5242202;28;20056;-68
2023/05/27 12:24:44;;;;;;;17.80;16.15;;;22.50;99.90;;;;;;5244780;28;20116;-69
2023/05/27 12:27:15;;;;;;;18.95;17.55;;;22.50;99.90;;;;;;5244050;28;20048;-69
2023/05/27 12:29:46;;;;;;;17.58;16.15;;;22.50;99.90;;;;;;5244155;28;20049;-68
2023/05/27 12:32:17;;;;;;;19.02;17.50;;;22.50;99.90;;;;;;5241466;28;20048;-69
2023/05/27 12:34:48;;;;;;;18.42;16.80;;;22.40;99.90;;;;;;5244354;28;20028;-72
2023/05/27 12:37:19;;;;;;;17.50;16.00;;;22.50;99.90;;;;;;5244328;28;20515;-68
2023/05/27 12:39:51;;;;;;;18.58;17.17;;;22.40;99.90;;;;;;5241996;28;20024;-69
2023/05/27 12:42:22;;;;;;;18.33;17.02;;;21.80;99.90;;;;;;5244090;28;20491;-70
2023/05/27 12:44:53;;;;;;;17.88;16.35;;;21.80;99.90;;;;;;5243958;28;20112;-68
2023/05/27 12:47:24;;;;;;;18.50;17.10;;;22.10;99.90;;;;;;5244164;28;20097;-69
2023/05/27 12:49:55;;;;;;;16.92;15.55;;;22.40;99.90;;;;;;5243896;28;20020;-69
2023/05/27 12:52:26;;;;;;;15.70;14.60;;;22.30;99.90;;;;;;5244087;28;20024;-69
2023/05/27 12:54:57;;;;;;;17.38;15.85;;;22.50;99.90;;;;;;5239880;28;20032;-68
2023/05/27 12:57:27;;;;;;;15.57;14.32;;;22.70;99.90;;;;;;5240928;28;20036;-69